De Soto, KS

3:59 PM CDT on September 04, 2015 (GMT -0500)
Timber Trails | | Change Station
CLOSE
Current Station
Personal Weather Station
Location: De Soto, KS
Elevation: 878 ft
Nearby Weather Stations

Elev 878 ft 38.98 °N, 94.99 °W | Updated 1 minute ago

Clear
Clear
91.5 °F
Feels Like 98 °F
N
4.0
Wind Variable Wind from SW
Gusts 8.0 mph

Today
High -- | Low -- °F
--% Chance of Precip.
Yesterday
High -- | Low -- °F
Precip. -- in
6:51 AM 7:46 PM
Waning Gibbous, 56% visible
Pressure 29.93 in
Visibility 10.0 miles
Clouds Clear
Heat Index 98 °F
Dew Point 71 °F
Humidity 51%
Rainfall 0.00 in
Snow Depth Not available.
UV 3.3 out of 12
Pollen 10.30 out of 12
Air Quality Not available.
Flu Activity Not available.
METAR KIXD 042053Z 17011G19KT 10SM CLR 32/20 A2996 RMK AO2 SLP133 T03170200 56012
Pressure 29.93 in
Visibility 10.0 miles
Clouds Clear
Heat Index 98 °F
Dew Point 71 °F
Humidity 51%
Rainfall 0.00 in
Snow Depth Not available.
UV 3.3 out of 12
Pollen 10.30 out of 12
Air Quality Not available.
Flu Activity Not available.
METAR KIXD 042053Z 17011G19KT 10SM CLR 32/20 A2996 RMK AO2 SLP133 T03170200 56012

10-Day Weather Forecast

×

Almanac

Astronomy

Sep. 04, 2015 Rise Set
Actual Time
Civil Twilight
Nautical Twilight
Astronomical Twilight
Moon
Length of Visible Light
Length of Day
Tomorrow will be .
, % of the Moon is Illuminated

Today's Extremes

State Highs State Lows

Community

WunderPhotos

Upload Photos

1,852,283 photos uploaded!

WunderBlogs® & News

Nearby

Air Quality

  Air Quality AQ Index Pollutant
Not available.

Snow Depth

Station Depth Elevation

Earthquake Activity

City Distance Mag. Time & Date
Minimum magnitude displayed is 2.5.

Coastal Water Temperatures

Place Temperature

Stations

Nearby Weather Stations

Station Location Temp. Windchill Dew Point Humidity Wind Precip. Elev Updated Type